Blue Grass Airport
KLEX : now visible

Airfield :











YOU CAN JOIN US ON...

 
LOGIN :

Register | Disclaimer

   EN    FR    IT 

 









Legend :    VFR   Marginal VFR   IFR   Intensive IFR   Very Intensive IFR
Visi :
Ceiling :
>= 8 km
>= 3000ft
5 to 8 km
1000 to 3000 ft
1500m to 5 km
500 to 1000 ft
800 to 1500m
200 to 500 ft
< 800m
< 200 ft
Symbols :   Thunderstorms  Fog  Heavy snow  Heavy precipitations  Wind > 20 kt







- Airport Elevation : 979 ft
- IATA code : LEX


KLEX - Blue Grass

CURRENT METAR :
  • 191354Z 04007KT 10SM CLR M02/M07 A3060 RMK AO2 SLP373 T10221067

EXPIRED METARs :
  • 191254Z 06008KT 10SM CLR M04/M07 A3058 RMK AO2 SLP365 T10391072
  • 191154Z 04007KT 10SM CLR M04/M08 A3056 RMK AO2 SLP359 T10441078 11022 21044 51008

TAF KLEX
Valid from the 19 at 12:00 until the 20 at 12:00 UTC


191120Z 1912/2012 VRB06KT P6SM SCT030 BKN250
FM191500 07010KT P6SM BKN200
PROB30 1923/2002 6SM -RASN SCT040 BKN060
FM200200 07010G15KT 5SM -RASN SCT025 BKN040
FM200600 07013G18KT 3SM -RA BR BKN025 WS020/12038KT
FM200800 08014G19KT 4SM -RA BR BKN012 WS020/13040KT
KZID FIR / North America



MET'MAP, your aeronautical weather chart ! - Copyright ORBIFLY December 2007 - Disclaimer

ORBIFLY MET'MAP TEAM :

Programming & Development : Alexandra Zaïnal
Concept & Development : Baudouin d'Aumeries
Co-Development & Prog : Marc-Olivier Méhu
Technical & hardware support : Manuel Goepfert

Contact : metmap@orbifly.com




SOURCES & CREDITS :

   NOAA       Earth
Advisory